Pope Air Force Base Fayetteville US
ICAO: KPOB
IATA: POB
Category: Medium
Scheduled Services: No

Elevation: 217 ft
TransAlt. 18000 ft.

Airport Communications:
FAYETTEVILLE APP/DEP:125.175
COMD POST:134.1
ATIS:132.3
CLNC DEL:27.58
GND:124.55
PMSV METRO:34.46
PTD:37.22
TWR:135.025

KPOB Zoom In..

Runways:

(A) RW 05 length 7501 ft width 150 ft
---- / hdg 48

(B) RW 23 length 7501 ft width 150 ft
ILS 110.90 / hdg 228

Location; KPOB
Day. 21 / Time. 19.56 Zulu
* Altimeter: 30.09
* Temperature: 30° c. 86°f.
* Wind from: 200° Speed 03 kn.
Dewpoint: 20° c.
Visibility: 10 Statute Miles.
Clouds: Few 4000 ft.
Clouds: Scattered 21000 ft.

KPOB 211956Z AUTO 20003KT 10SM FEW040 SCT210 30/20 A3009 RMK AO2 SLP190 T02960196 $


Wind From 200°
Speed 03 kn.

 
 
jpsmedia.com for Web Design SOUNDCLOUD worldairports.se 2018   terms of use